createdAt,value
2023-05-14T00:13:45.389Z,54.34
2023-05-14T00:28:47.184Z,56.29
2023-05-14T00:43:49.058Z,57.16
2023-05-14T00:58:50.964Z,57.83
2023-05-14T01:14:10.851Z,59.67
2023-05-14T01:29:23.507Z,64.82
2023-05-14T01:44:25.580Z,66.66
2023-05-14T01:59:30.074Z,73.69
2023-05-14T02:14:31.892Z,78.07
2023-05-14T02:29:33.729Z,80.09
2023-05-14T02:44:35.675Z,86.56
2023-05-14T02:59:37.978Z,88.75
2023-05-14T03:14:40.583Z,90.56
2023-05-14T03:29:42.413Z,95.58
2023-05-14T03:44:44.427Z,92.14
2023-05-14T03:59:46.542Z,88.47
2023-05-14T04:14:48.380Z,86.65
2023-05-14T04:29:50.933Z,83.29
2023-05-14T04:44:52.869Z,82.77
2023-05-14T04:59:54.811Z,78.60
2023-05-14T05:14:57.629Z,76.35
2023-05-14T05:30:01.698Z,70.07
2023-05-14T05:45:03.769Z,68.38
2023-05-14T06:00:15.689Z,69.04
2023-05-14T06:15:22.990Z,62.97
2023-05-14T06:31:08.929Z,58.92
2023-05-14T06:46:59.966Z,50.54
2023-05-14T07:02:17.639Z,46.10
2023-05-14T07:17:19.510Z,41.39
2023-05-14T07:32:22.789Z,37.62
2023-05-14T07:47:48.161Z,35.57
2023-05-14T08:03:43.453Z,31.02
2023-05-14T08:34:19.204Z,32.96
2023-05-14T08:49:52.129Z,34.21
2023-05-14T09:05:02.621Z,32.92
2023-05-14T09:35:51.359Z,30.13
2023-05-14T09:51:27.131Z,28.47
2023-05-14T10:07:09.558Z,27.88
2023-05-14T10:38:22.866Z,30.59
2023-05-14T10:54:11.339Z,29.45
2023-05-14T11:09:56.378Z,27.54
2023-05-14T11:25:07.339Z,30.79
2023-05-14T11:41:18.643Z,33.02
2023-05-14T11:56:03.961Z,32.86
2023-05-14T12:26:52.861Z,35.05
2023-05-14T12:42:21.219Z,34.30
2023-05-14T12:57:29.996Z,33.48
2023-05-14T13:12:46.564Z,34.81
2023-05-14T13:27:50.980Z,36.89
2023-05-14T13:42:53.005Z,39.77
2023-05-14T13:57:54.982Z,40.85
2023-05-14T14:12:57.129Z,39.07
2023-05-14T14:27:59.027Z,38.10
2023-05-14T14:43:02.141Z,38.22
2023-05-14T14:58:04.000Z,36.88
2023-05-14T15:13:06.671Z,37.20
2023-05-14T15:28:08.730Z,37.97
2023-05-14T15:43:10.555Z,38.94
2023-05-14T15:58:13.002Z,39.66
2023-05-14T16:13:15.214Z,41.19
2023-05-14T16:28:29.478Z,42.59
2023-05-14T16:43:31.281Z,44.09
2023-05-14T16:58:33.128Z,45.31
2023-05-14T17:13:35.385Z,45.23
2023-05-14T17:28:37.312Z,45.87
2023-05-14T17:43:39.145Z,47.07
2023-05-14T17:58:41.478Z,47.96
2023-05-14T18:13:43.520Z,47.86
2023-05-14T18:28:45.394Z,48.37
2023-05-14T18:43:47.311Z,49.17
2023-05-14T18:58:49.153Z,49.29
2023-05-14T19:13:51.101Z,49.97
2023-05-14T19:28:58.107Z,50.22
2023-05-14T19:43:59.926Z,50.19
2023-05-14T19:59:01.757Z,49.66
2023-05-14T20:14:04.007Z,49.85
2023-05-14T20:29:05.856Z,50.20
2023-05-14T20:44:07.660Z,50.67
2023-05-14T20:59:09.519Z,53.64
2023-05-14T21:14:13.369Z,54.14
2023-05-14T21:29:15.240Z,55.28
2023-05-14T21:44:17.020Z,58.04
2023-05-14T21:59:18.936Z,60.42
2023-05-14T22:14:21.055Z,63.36
2023-05-14T22:29:23.145Z,66.59
2023-05-14T22:44:25.051Z,68.37
2023-05-14T22:59:28.009Z,65.98
2023-05-14T23:14:30.416Z,65.14
2023-05-14T23:29:32.195Z,65.91
2023-05-14T23:44:33.961Z,66.45
2023-05-14T23:59:35.835Z,67.80
